Terminal Aerodrome Forecast
Issued by NWS

Home | Current Version | Previous Version | Text Only | Print | Product List | Glossary On
Versions: 1 2 3 4 5 6 7 8 9 10 11 12 13 14
000
FTUS42 KTBW 262112 AAA
TAFPGD
TAF AMD
KPGD 262112Z 2621/2718 19006KT P6SM VCTS BKN045CB
      TEMPO 2621/2623 VRB10G20KT 3SM TSRA
     FM262300 27006KT P6SM VCTS SCT050CB BKN080
     FM270000 29005KT P6SM SCT050 BKN100
     FM270500 VRB03KT P6SM SCT030 BKN040=

USA.gov is the U.S. government's official web portal to all federal, state and local government web resources and services.